Terminal Aerodrome Forecast
Issued by NWS

Home | Current Version | Previous Version | Graphics & Text | Print | Product List | Glossary On
Versions: 1 2 3 4 5 6 7 8 9 10 11 12 13 14 15 16 17 18 19 20 21
000
FTUS43 KGRB 140520
TAFRHI
TAF
KRHI 140520Z 1406/1506 32004KT P6SM -SHSN SCT022 BKN035
      TEMPO 1406/1410 4SM -SHSN BKN025 BKN035
     FM141000 27003KT P6SM -SHSN BKN018
     FM141400 27004KT P6SM BKN018 OVC030
     FM142300 28004KT P6SM -SHSN BKN023
     FM150300 28004KT P6SM -SHSN BKN035=

USA.gov is the U.S. government's official web portal to all federal, state and local government web resources and services.